Time;durP1;ratioP1;P1;durP2;ratioP2;P2;SDS_P1;SDS_P2;PMS_P1;PMS_P2;Temp;Humidity;BMP_temperature;BMP_pressure;BME280_temperature;BME280_humidity;BME280_pressure;Samples;Min_cycle;Max_cycle;Signal;HPM_P1;HPM_P2
2022/05/16 00:00:50;;;;;;;14.90;4.23;;;;;;;17.22;52.22;101149.94;6406903;23;20009;-81
2022/05/16 00:03:24;;;;;;;9.40;4.33;;;;;;;17.16;52.63;101144.88;6406815;23;20080;-81
2022/05/16 00:05:55;;;;;;;11.98;5.10;;;;;;;16.98;53.05;101139.31;6404847;23;20051;-80
2022/05/16 00:08:26;;;;;;;21.03;5.50;;;;;;;16.98;53.18;101144.59;6405333;23;20010;-80
2022/05/16 00:10:58;;;;;;;12.53;4.30;;;;;;;17.02;53.40;101142.75;6406065;23;20009;-80
2022/05/16 00:13:29;;;;;;;10.73;4.73;;;;;;;16.95;54.46;101142.94;6405729;23;20017;-80
2022/05/16 00:16:01;;;;;;;10.03;4.20;;;;;;;16.94;53.32;101141.22;6379581;23;20017;-80
2022/05/16 00:18:32;;;;;;;12.90;4.23;;;;;;;16.91;53.88;101137.81;6405357;23;20005;-79
2022/05/16 00:21:04;;;;;;;14.77;4.43;;;;;;;16.76;54.23;101132.13;6403964;23;20009;-80
2022/05/16 00:23:35;;;;;;;10.13;4.07;;;;;;;16.77;54.07;101130.34;6404020;23;20048;-80
2022/05/16 00:26:06;;;;;;;9.33;3.83;;;;;;;16.72;54.41;101117.31;6404051;23;20235;-80
2022/05/16 00:28:38;;;;;;;10.17;4.30;;;;;;;16.65;54.64;101121.09;6404952;23;20002;-79
2022/05/16 00:31:09;;;;;;;11.63;5.00;;;;;;;16.59;55.41;101119.50;6403997;23;20048;-80
2022/05/16 00:33:41;;;;;;;12.80;4.20;;;;;;;16.57;54.84;101109.94;6403828;23;20009;-80
2022/05/16 00:36:13;;;;;;;14.20;4.60;;;;;;;16.75;54.62;101125.13;6403289;23;20005;-80
2022/05/16 00:38:44;;;;;;;11.90;4.00;;;;;;;16.55;54.95;101122.28;6402827;23;20005;-80
2022/05/16 00:41:16;;;;;;;9.83;4.00;;;;;;;16.48;55.65;101126.03;6403081;23;20014;-80
2022/05/16 00:43:52;;;;;;;14.87;4.70;;;;;;;16.44;55.56;101121.75;6403211;23;20476;-79
2022/05/16 00:46:32;;;;;;;14.95;4.63;;;;;;;16.35;55.83;101120.28;6403932;23;20013;-81
2022/05/16 00:49:08;;;;;;;10.52;4.05;;;;;;;16.26;56.14;101123.22;6403399;23;20012;-80
2022/05/16 00:52:08;;;;;;;12.18;4.22;;;;;;;16.41;55.46;101123.59;6402691;23;20343;-80
2022/05/16 00:55:02;;;;;;;11.25;4.00;;;;;;;16.30;55.11;101119.59;6309199;23;20014;-80
2022/05/16 00:57:37;;;;;;;11.52;4.65;;;;;;;16.27;56.78;101117.91;6308017;23;20800;-80
2022/05/16 01:00:19;;;;;;;11.90;4.55;;;;;;;16.13;56.65;101112.19;6308986;23;20019;-80
2022/05/16 01:05:44;;;;;;;13.55;4.20;;;;;;;16.05;57.21;101104.53;6309326;23;20094;-81
2022/05/16 01:08:19;;;;;;;13.27;5.33;;;;;;;16.07;57.34;101107.13;6309264;23;20086;-81
2022/05/16 01:10:53;;;;;;;9.68;4.38;;;;;;;16.02;57.52;101102.03;6309105;23;20010;-80
2022/05/16 01:13:30;;;;;;;9.13;4.40;;;;;;;15.92;58.08;101111.09;6308671;23;20151;-81
2022/05/16 01:16:03;;;;;;;13.98;6.28;;;;;;;15.88;57.91;101091.94;6308221;23;20014;-80
2022/05/16 01:18:34;;;;;;;15.20;5.45;;;;;;;15.78;58.64;101114.16;6308598;23;20014;-80
2022/05/16 01:21:23;;;;;;;14.73;5.30;;;;;;;15.84;57.70;101104.31;6308441;23;20011;-81
2022/05/16 01:24:12;;;;;;;13.55;4.25;;;;;;;15.83;58.11;101114.88;6308549;23;20011;-81
2022/05/16 01:26:44;;;;;;;11.63;4.55;;;;;;;15.88;58.54;101112.09;6286081;23;20837;-81
2022/05/16 01:29:15;;;;;;;12.93;4.50;;;;;;;15.75;58.61;101116.81;6284123;23;20019;-79
2022/05/16 01:31:47;;;;;;;13.53;4.20;;;;;;;15.79;59.21;101116.72;6334826;23;20036;-76
2022/05/16 01:34:18;;;;;;;14.37;5.37;;;;;;;15.73;59.17;101111.63;6350296;23;20002;-81
2022/05/16 01:36:49;;;;;;;18.07;5.53;;;;;;;15.78;58.63;101101.00;6347357;23;20014;-81
2022/05/16 01:39:21;;;;;;;15.57;6.00;;;;;;;15.58;59.38;101098.91;6341439;23;20446;-80
2022/05/16 01:41:52;;;;;;;13.43;4.80;;;;;;;15.79;58.79;101105.34;6341759;23;20683;-80
2022/05/16 01:44:24;;;;;;;12.53;4.80;;;;;;;15.62;59.23;101111.91;6340936;23;20006;-81
2022/05/16 01:46:55;;;;;;;12.30;4.67;;;;;;;15.77;59.51;101107.16;6341701;23;20508;-78
2022/05/16 01:49:26;;;;;;;14.27;5.03;;;;;;;15.76;59.69;101095.78;6342161;23;20659;-82
2022/05/16 01:51:58;;;;;;;16.70;4.70;;;;;;;15.75;59.60;101095.81;6340017;23;20070;-80
2022/05/16 01:54:29;;;;;;;12.43;4.17;;;;;;;15.73;59.37;101106.34;6341357;23;20010;-81
2022/05/16 01:57:00;;;;;;;12.63;4.60;;;;;;;15.67;59.42;101086.34;6341923;23;20006;-81
2022/05/16 01:59:32;;;;;;;11.13;4.50;;;;;;;15.70;59.48;101085.41;6341668;23;20085;-82
2022/05/16 02:02:03;;;;;;;10.77;4.63;;;;;;;15.71;59.92;101078.38;6341186;23;20029;-82
2022/05/16 02:04:34;;;;;;;13.53;4.30;;;;;;;15.74;59.78;101078.28;6341435;23;20020;-81
2022/05/16 02:07:06;;;;;;;9.93;5.03;;;;;;;15.71;60.20;101086.28;6342004;23;20030;-81
2022/05/16 02:09:38;;;;;;;10.60;4.93;;;;;;;15.79;59.83;101079.03;6342319;23;20064;-80
2022/05/16 02:12:10;;;;;;;12.65;4.57;;;;;;;15.82;59.86;101076.34;6346514;23;20036;-80
2022/05/16 02:14:41;;;;;;;13.07;4.80;;;;;;;15.84;60.14;101077.13;6404715;23;20735;-82
2022/05/16 02:17:13;;;;;;;12.77;4.73;;;;;;;15.88;59.76;101080.56;6404075;23;20014;-79
2022/05/16 02:19:44;;;;;;;11.73;4.83;;;;;;;15.83;59.96;101060.50;6404754;23;20040;-82
2022/05/16 02:25:06;;;;;;;11.38;4.45;;;;;;;15.83;60.12;101063.16;6404816;23;20249;-81
2022/05/16 02:27:38;;;;;;;9.00;4.70;;;;;;;15.89;60.53;101064.75;6403992;23;20005;-81
2022/05/16 02:30:10;;;;;;;10.37;4.20;;;;;;;15.82;60.21;101066.66;6404768;23;20037;-81
2022/05/16 02:32:42;;;;;;;11.55;4.57;;;;;;;15.83;60.64;101062.28;6404784;23;20032;-81
2022/05/16 02:35:13;;;;;;;13.67;4.53;;;;;;;15.80;60.37;101057.13;6405223;23;20009;-80
2022/05/16 02:37:45;;;;;;;11.87;4.80;;;;;;;15.71;60.58;101052.09;6404582;23;20021;-79
2022/05/16 02:40:16;;;;;;;14.87;5.00;;;;;;;15.73;61.06;101050.28;6404147;23;20303;-80
2022/05/16 02:42:47;;;;;;;9.27;4.33;;;;;;;15.71;61.03;101052.94;6404773;23;20012;-81
2022/05/16 02:45:19;;;;;;;13.03;4.10;;;;;;;15.73;60.96;101052.91;6404669;23;20080;-80
2022/05/16 02:47:51;;;;;;;9.37;4.67;;;;;;;15.65;61.18;101040.88;6404938;23;20012;-79
2022/05/16 02:50:24;;;;;;;11.43;4.40;;;;;;;15.64;61.42;101038.28;6404286;23;20739;-80
2022/05/16 02:52:56;;;;;;;8.40;4.45;;;;;;;15.61;61.78;101039.22;6405229;23;20060;-80
2022/05/16 02:55:29;;;;;;;12.07;5.07;;;;;;;15.60;61.48;101036.66;6404177;23;20411;-81
2022/05/16 02:58:00;;;;;;;10.15;5.00;;;;;;;15.60;61.56;101029.66;6404193;23;20009;-81
2022/05/16 03:00:32;;;;;;;10.60;4.33;;;;;;;15.61;61.55;101036.59;6402666;23;20013;-80
2022/05/16 03:03:03;;;;;;;9.00;4.60;;;;;;;15.60;61.75;101032.28;6403913;23;20383;-81
2022/05/16 03:05:35;;;;;;;12.37;4.70;;;;;;;15.55;61.83;101026.25;6404176;23;20400;-80
2022/05/16 03:08:06;;;;;;;10.73;4.37;;;;;;;15.49;62.28;101022.06;6404655;23;20006;-79
2022/05/16 03:10:38;;;;;;;11.10;4.57;;;;;;;15.50;62.15;101022.91;6378569;23;20092;-77
2022/05/16 03:13:09;;;;;;;9.00;4.20;;;;;;;15.42;62.54;101020.53;6404093;23;20048;-79
2022/05/16 03:15:42;;;;;;;17.10;4.73;;;;;;;15.44;62.55;101021.34;6404720;23;20010;-80
2022/05/16 03:18:13;;;;;;;15.98;5.05;;;;;;;15.43;62.59;101022.25;6404200;23;20009;-79
2022/05/16 03:20:45;;;;;;;8.60;3.93;;;;;;;15.38;62.59;101018.91;6404286;23;20009;-80
2022/05/16 03:23:16;;;;;;;12.77;4.07;;;;;;;15.38;62.49;101024.16;6378705;23;20088;-81
2022/05/16 03:25:47;;;;;;;13.17;4.63;;;;;;;15.35;63.03;101020.75;6406002;23;20044;-81
2022/05/16 03:28:19;;;;;;;11.33;4.37;;;;;;;15.35;62.71;101021.59;6405369;23;20013;-81
2022/05/16 03:30:50;;;;;;;13.87;4.07;;;;;;;15.41;62.73;101025.84;6405724;23;20438;-80
2022/05/16 03:33:22;;;;;;;9.67;4.40;;;;;;;15.31;63.23;101036.59;6406710;23;20014;-80
2022/05/16 03:35:56;;;;;;;13.17;4.50;;;;;;;15.31;63.06;101028.72;6405532;23;20009;-81
2022/05/16 03:41:18;;;;;;;9.75;4.70;;;;;;;15.22;63.71;101028.97;6404643;23;20350;-81
2022/05/16 03:43:50;;;;;;;8.10;3.73;;;;;;;15.16;64.13;101029.16;6405068;23;20010;-80
2022/05/16 03:46:24;;;;;;;;;;;;;;;15.15;61.42;101024.81;6405039;23;20037;-78
2022/05/16 03:48:55;;;;;;;;;;;;;;;15.13;61.11;101030.13;6405088;23;20307;-81
2022/05/16 03:51:26;;;;;;;10.27;4.40;;;;;;;15.01;64.41;101024.34;6404086;23;19974;-81
2022/05/16 03:53:58;;;;;;;11.60;4.67;;;;;;;14.98;64.86;101021.78;6407313;23;20344;-80
2022/05/16 03:56:29;;;;;;;12.23;5.03;;;;;;;14.92;64.93;101026.31;6406183;23;20012;-80
2022/05/16 03:59:01;;;;;;;11.20;4.00;;;;;;;14.90;65.67;101022.84;6404263;23;20010;-80
2022/05/16 04:01:32;;;;;;;15.70;5.03;;;;;;;14.89;65.72;101021.16;6405444;23;20017;-80
2022/05/16 04:04:04;;;;;;;10.27;4.40;;;;;;;14.90;65.78;101019.38;6405252;23;20315;-81
2022/05/16 04:06:36;;;;;;;12.00;5.23;;;;;;;14.94;65.55;101014.00;6404420;23;20005;-81
2022/05/16 04:09:07;;;;;;;13.55;4.78;;;;;;;14.89;65.75;101020.25;6404352;23;20071;-80
2022/05/16 04:11:40;;;;;;;13.27;4.57;;;;;;;14.94;65.84;101021.88;6406070;23;20428;-80
2022/05/16 04:14:12;;;;;;;11.82;4.97;;;;;;;14.93;65.89;101028.00;6404044;23;20013;-81
2022/05/16 04:16:43;;;;;;;11.33;4.73;;;;;;;15.00;65.82;101023.47;6404048;23;20373;-81
2022/05/16 04:19:14;;;;;;;13.37;5.03;;;;;;;14.97;65.87;101030.56;6405505;23;20051;-80
2022/05/16 04:21:45;;;;;;;8.97;4.17;;;;;;;15.07;65.22;101039.91;6410035;23;20009;-81
2022/05/16 04:24:18;;;;;;;9.87;4.70;;;;;;;15.05;66.16;101034.72;6418183;23;20006;-81
2022/05/16 04:26:49;;;;;;;11.20;4.88;;;;;;;15.13;65.42;101032.75;6416789;23;20024;-80
2022/05/16 04:29:21;;;;;;;9.17;4.73;;;;;;;15.08;66.01;101031.13;6415493;23;20344;-81
2022/05/16 04:31:52;;;;;;;10.80;4.07;;;;;;;15.21;65.89;101029.88;6414200;23;20021;-82
2022/05/16 04:34:24;;;;;;;11.00;4.27;;;;;;;15.25;65.09;101034.16;6414496;23;20093;-81
2022/05/16 04:36:55;;;;;;;15.20;4.67;;;;;;;15.21;66.22;101031.66;6412150;23;20561;-81
2022/05/16 04:39:27;;;;;;;9.97;4.50;;;;;;;15.26;65.46;101035.88;6407711;23;20001;-81
2022/05/16 04:44:48;;;;;;;14.57;4.85;;;;;;;15.45;65.56;101036.19;6404875;23;20017;-83
2022/05/16 04:47:19;;;;;;;8.80;4.90;;;;;;;15.51;64.88;101037.78;6405514;23;20009;-83
2022/05/16 04:49:51;;;;;;;10.00;4.40;;;;;;;15.66;64.43;101039.97;6378293;23;20012;-83
2022/05/16 04:52:22;;;;;;;8.77;4.53;;;;;;;15.80;63.91;101034.31;6404901;23;20017;-82
2022/05/16 04:54:54;;;;;;;13.50;5.40;;;;;;;15.90;63.64;101044.56;6404010;23;20009;-82
2022/05/16 04:57:26;;;;;;;8.70;4.70;;;;;;;16.08;63.05;101043.13;6403662;23;20005;-82
2022/05/16 04:59:57;;;;;;;10.73;4.93;;;;;;;16.22;62.43;101041.75;6403497;23;20498;-80
2022/05/16 05:02:28;;;;;;;15.37;4.83;;;;;;;16.46;60.96;101048.91;6403475;23;20009;-80
2022/05/16 05:05:00;;;;;;;9.83;4.70;;;;;;;16.55;61.40;101046.84;6403704;23;20355;-81
2022/05/16 05:07:31;;;;;;;15.20;5.20;;;;;;;16.65;61.38;101039.50;6404549;23;20010;-81
2022/05/16 05:15:45;;;;;;;10.13;4.60;;;;;;;17.18;58.87;101048.22;6403370;23;20262;-81
2022/05/16 05:18:17;;;;;;;10.77;4.38;;;;;;;17.29;58.53;101049.56;6404031;23;20450;-81
2022/05/16 05:20:48;;;;;;;17.90;5.03;;;;;;;17.37;58.94;101044.00;6403545;23;20045;-81
2022/05/16 05:23:19;;;;;;;13.27;4.27;;;;;;;17.43;58.10;101045.53;6406460;23;20002;-82
2022/05/16 05:25:51;;;;;;;10.30;5.07;;;;;;;17.48;58.66;101052.38;6403417;23;20041;-82
2022/05/16 05:28:22;;;;;;;14.93;4.07;;;;;;;17.59;57.17;101043.19;6403593;23;20085;-80
2022/05/16 05:30:55;;;;;;;8.53;4.07;;;;;;;17.69;57.58;101041.91;6404696;23;20008;-82
2022/05/16 05:33:27;;;;;;;10.15;4.45;;;;;;;17.75;57.90;101041.69;6403036;23;20081;-82
2022/05/16 05:36:00;;;;;;;13.88;4.70;;;;;;;17.87;57.62;101040.38;6403825;23;20048;-81
2022/05/16 05:38:32;;;;;;;12.57;4.20;;;;;;;17.94;56.63;101041.00;6403585;23;20416;-81
2022/05/16 05:41:04;;;;;;;7.40;4.00;;;;;;;18.00;56.71;101052.19;6403224;23;20013;-82
2022/05/16 05:43:36;;;;;;;8.02;3.80;;;;;;;18.07;56.47;101058.06;6403061;23;20013;-81
2022/05/16 05:46:07;;;;;;;12.15;3.90;;;;;;;18.13;55.72;101065.75;6403604;23;20001;-81
2022/05/16 05:48:39;;;;;;;8.00;4.00;;;;;;;18.17;56.14;101069.97;6403285;23;20058;-81
2022/05/16 05:51:12;;;;;;;11.10;3.87;;;;;;;18.17;55.50;101069.97;6402861;23;20005;-81
2022/05/16 05:53:44;;;;;;;17.95;4.53;;;;;;;18.17;55.25;101067.31;6402849;23;20009;-80
2022/05/16 05:56:15;;;;;;;11.00;4.07;;;;;;;18.13;55.46;101073.66;6403378;23;20012;-82
2022/05/16 05:58:47;;;;;;;8.10;3.90;;;;;;;18.21;54.95;101076.00;6403154;23;20013;-81
2022/05/16 06:01:18;;;;;;;14.90;4.13;;;;;;;18.20;55.39;101074.25;6402945;23;20264;-80
2022/05/16 06:03:49;;;;;;;7.83;3.83;;;;;;;18.29;54.94;101079.19;6403231;23;20006;-80
2022/05/16 06:06:21;;;;;;;11.10;4.40;;;;;;;18.37;56.19;101076.19;6402969;23;20076;-80
2022/05/16 06:08:52;;;;;;;15.03;5.13;;;;;;;18.50;54.72;101076.56;6403296;23;20096;-81
2022/05/16 06:11:28;;;;;;;11.23;3.67;;;;;;;18.59;55.10;101077.06;6402496;23;20013;-80
2022/05/16 06:13:59;;;;;;;11.15;4.00;;;;;;;18.72;54.68;101081.81;6402154;23;20021;-80
2022/05/16 06:16:31;;;;;;;10.17;4.07;;;;;;;18.93;54.80;101091.53;6376848;23;20005;-82
2022/05/16 06:19:02;;;;;;;9.33;3.53;;;;;;;19.11;54.07;101099.53;6402965;23;20021;-78
2022/05/16 06:21:34;;;;;;;13.87;4.10;;;;;;;19.14;53.59;101094.13;6403070;23;20020;-79
2022/05/16 06:25:31;;;;;;;14.75;4.90;;;;;;;19.10;54.00;101090.78;6404278;23;20328;-80
2022/05/16 06:27:00;;;;;;;11.43;4.20;;;;;;;19.09;53.41;101096.13;6402485;23;20056;-82
2022/05/16 06:29:32;;;;;;;10.15;3.47;;;;;;;19.08;54.00;101097.91;6402509;23;20432;-82
2022/05/16 06:32:04;;;;;;;13.38;4.50;;;;;;;19.00;54.31;101102.66;6403133;23;20009;-80
2022/05/16 06:34:35;;;;;;;12.87;3.87;;;;;;;18.94;54.28;101105.56;6401748;23;20309;-81
2022/05/16 06:37:07;;;;;;;14.57;4.40;;;;;;;18.92;55.18;101108.28;6403234;23;20012;-80
2022/05/16 06:39:38;;;;;;;13.02;4.20;;;;;;;19.00;54.46;101107.97;6402243;23;20424;-80
2022/05/16 06:42:10;;;;;;;17.13;4.07;;;;;;;19.08;54.42;101110.28;6402927;23;20006;-81
2022/05/16 06:44:41;;;;;;;14.53;3.93;;;;;;;19.09;54.72;101111.97;6402304;23;20009;-82
2022/05/16 06:47:12;;;;;;;15.13;4.40;;;;;;;19.12;55.35;101114.47;6402500;23;20036;-82
2022/05/16 06:49:44;;;;;;;14.80;3.70;;;;;;;19.24;55.10;101111.31;6404016;23;20036;-79
2022/05/16 06:52:16;;;;;;;10.23;4.47;;;;;;;19.47;54.10;101117.38;6402317;23;20112;-80
2022/05/16 06:54:47;;;;;;;11.75;3.67;;;;;;;19.62;54.35;101106.09;6403771;23;20001;-82
2022/05/16 06:57:19;;;;;;;8.97;3.53;;;;;;;19.60;54.06;101117.69;6404808;23;20044;-81
2022/05/16 06:59:50;;;;;;;17.53;3.93;;;;;;;19.65;53.98;101113.88;6408824;23;20006;-81
2022/05/16 07:02:21;;;;;;;8.97;3.80;;;;;;;19.71;54.21;101114.56;6405750;23;20001;-81
2022/05/16 07:04:53;;;;;;;9.40;3.50;;;;;;;19.82;53.92;101121.09;6404153;23;20087;-82
2022/05/16 07:07:27;;;;;;;8.18;3.15;;;;;;;19.97;53.67;101118.66;6404030;23;20005;-79
2022/05/16 07:09:59;;;;;;;9.43;3.45;;;;;;;19.97;53.91;101116.00;6405143;23;20093;-83
2022/05/16 07:12:31;;;;;;;11.77;4.15;;;;;;;20.25;53.41;101125.28;6404795;23;20410;-82
2022/05/16 07:15:03;;;;;;;10.05;4.47;;;;;;;20.40;52.99;101129.84;6404240;23;20013;-84
2022/05/16 07:17:34;;;;;;;12.23;3.88;;;;;;;20.44;53.58;101130.56;6404956;23;20012;-77
2022/05/16 07:20:06;;;;;;;14.87;4.03;;;;;;;20.42;53.21;101132.44;6405046;23;20005;-77
2022/05/16 07:22:45;;;;;;;10.10;4.05;;;;;;;20.63;53.80;101135.81;6404397;23;20009;-79
2022/05/16 07:25:22;;;;;;;7.47;2.95;;;;;;;20.82;52.69;101133.09;6403985;23;20026;-82
2022/05/16 07:27:56;;;;;;;9.80;3.90;;;;;;;20.80;53.29;101133.22;6404247;23;20019;-81
2022/05/16 07:30:34;;;;;;;11.60;3.40;;;;;;;21.05;52.20;101146.06;6404382;23;20077;-80
2022/05/16 07:33:06;;;;;;;9.45;3.30;;;;;;;21.21;52.26;101139.97;6404209;23;20089;-82
2022/05/16 07:35:38;;;;;;;16.53;4.20;;;;;;;21.36;51.63;101141.81;6404188;23;20024;-80
2022/05/16 07:38:10;;;;;;;12.38;3.72;;;;;;;21.46;51.42;101127.16;6404470;23;20419;-83
2022/05/16 07:40:41;;;;;;;11.63;3.40;;;;;;;21.52;52.57;101141.06;6405882;23;20033;-82
2022/05/16 07:43:12;;;;;;;9.53;3.67;;;;;;;21.46;51.96;101139.53;6405534;23;20406;-83
2022/05/16 07:45:44;;;;;;;8.00;3.47;;;;;;;21.52;51.84;101144.56;6404361;23;20002;-80
2022/05/16 07:48:16;;;;;;;11.53;3.17;;;;;;;21.59;51.72;101142.44;6404926;23;20018;-77
2022/05/16 07:50:48;;;;;;;8.77;2.80;;;;;;;21.56;52.19;101146.13;6403960;23;20015;-81
2022/05/16 07:53:20;;;;;;;8.07;3.58;;;;;;;21.56;52.04;101143.47;6407679;23;20084;-85
2022/05/16 07:55:54;;;;;;;10.10;3.30;;;;;;;21.43;52.32;101151.19;6405663;23;20080;-77
2022/05/16 07:58:29;;;;;;;9.18;3.30;;;;;;;21.29;53.17;101161.66;6404593;23;20241;-81
2022/05/16 08:01:00;;;;;;;8.18;3.40;;;;;;;21.08;54.23;101164.47;6404254;23;20044;-83
2022/05/16 08:03:32;;;;;;;12.07;3.00;;;;;;;21.05;54.65;101151.38;6404926;23;20016;-81
2022/05/16 08:06:03;;;;;;;12.73;2.77;;;;;;;21.13;55.04;101159.78;6404470;23;20002;-81
2022/05/16 08:11:24;;;;;;;8.38;3.20;;;;;;;21.21;54.66;101156.75;6404072;23;20013;-82
2022/05/16 08:13:56;;;;;;;9.57;2.93;;;;;;;21.25;54.94;101165.38;6404960;23;20112;-82
2022/05/16 08:16:27;;;;;;;6.13;2.63;;;;;;;21.24;55.21;101166.34;6405639;23;20013;-82
2022/05/16 08:18:59;;;;;;;8.50;3.00;;;;;;;21.27;55.04;101163.53;6405116;23;20028;-83
2022/05/16 08:21:31;;;;;;;7.35;2.92;;;;;;;21.38;54.44;101163.84;6404974;23;20049;-81
2022/05/16 08:24:07;;;;;;;8.60;3.40;;;;;;;21.52;54.72;101178.19;6405594;23;20021;-82
2022/05/16 08:26:39;;;;;;;10.88;3.90;;;;;;;21.92;54.16;101166.28;6404561;23;20005;-80
2022/05/16 08:29:10;;;;;;;14.17;3.43;;;;;;;22.26;53.56;101168.91;6406270;23;20152;-82
2022/05/16 08:31:41;;;;;;;12.60;3.20;;;;;;;22.71;52.23;101169.91;6377502;23;20013;-80
2022/05/16 08:34:13;;;;;;;9.93;3.30;;;;;;;22.94;50.27;101166.78;6404415;23;20009;-80
2022/05/16 08:39:52;;;;;;;4.55;2.60;;;;;;;23.39;49.34;101166.78;6403501;23;20013;-83
2022/05/16 08:42:42;;;;;;;7.00;2.65;;;;;;;23.70;47.78;101178.25;6403733;23;20028;-76
2022/05/16 08:45:20;;;;;;;14.50;3.17;;;;;;;23.72;47.71;101175.47;6403855;23;20005;-80
2022/05/16 08:47:57;;;;;;;8.82;2.85;;;;;;;23.80;47.29;101167.88;6403518;23;20446;-76
2022/05/16 08:50:45;;;;;;;9.15;2.65;;;;;;;23.95;47.03;101166.09;6404911;23;20013;-79
2022/05/16 08:53:24;;;;;;;7.85;2.90;;;;;;;24.12;46.48;101171.19;6402995;23;20435;-80
2022/05/16 08:56:00;;;;;;;12.98;2.95;;;;;;;24.13;46.28;101169.38;6404007;23;20040;-80
2022/05/16 08:59:01;;;;;;;7.45;2.90;;;;;;;24.30;46.02;101163.81;6403314;23;20080;-81
2022/05/16 09:01:37;;;;;;;7.32;2.78;;;;;;;24.54;46.09;101160.53;6310227;23;20520;-81
2022/05/16 09:04:18;;;;;;;10.13;3.10;;;;;;;24.81;45.78;101160.53;6311355;23;20072;-82
2022/05/16 09:07:02;;;;;;;10.70;3.10;;;;;;;24.87;44.89;101160.09;6309871;23;20090;-81
2022/05/16 09:10:01;;;;;;;7.78;2.90;;;;;;;25.16;44.59;101172.44;6309588;23;20046;-78
2022/05/16 09:13:06;;;;;;;9.23;3.38;;;;;;;25.59;44.43;101169.50;6308387;23;20373;-78
2022/05/16 09:15:53;;;;;;;9.48;3.50;;;;;;;25.43;42.94;101183.06;6309319;23;20011;-76
2022/05/16 09:18:38;;;;;;;6.25;2.72;;;;;;;25.48;43.38;101171.09;6309008;23;20026;-82
2022/05/16 09:21:30;;;;;;;7.57;2.92;;;;;;;25.75;43.23;101170.13;6308285;23;20050;-82
2022/05/16 09:24:35;;;;;;;6.25;3.15;;;;;;;25.84;43.42;101174.81;6308698;23;20006;-81
2022/05/16 09:28:34;;;;;;;6.90;2.95;;;;;;;25.78;43.00;101180.59;6220234;24;20068;-81
2022/05/16 09:30:14;;;;;;;5.45;2.42;;;;;;;25.54;43.08;101174.31;6221531;23;20020;-81
2022/05/16 09:32:57;;;;;;;9.95;3.20;;;;;;;25.77;42.99;101173.53;6221128;24;20008;-80
2022/05/16 09:35:37;;;;;;;;;;;;;;;26.12;42.52;101172.84;6221670;24;20016;-79
2022/05/16 09:38:08;;;;;;;7.45;2.78;;;;;;;26.23;42.40;101179.22;6238288;23;19914;-79
2022/05/16 09:41:06;;;;;;;9.23;3.43;;;;;;;26.32;42.11;101191.91;6251502;23;20063;-80
2022/05/16 09:43:44;;;;;;;10.35;3.00;;;;;;;26.37;42.07;101187.09;6231981;23;20547;-80
2022/05/16 09:46:29;;;;;;;9.50;3.17;;;;;;;26.70;41.21;101189.13;6265973;23;20012;-80
2022/05/16 09:49:06;;;;;;;9.25;2.78;;;;;;;26.79;40.03;101186.72;6270209;23;20097;-80
2022/05/16 09:51:44;;;;;;;8.05;3.53;;;;;;;27.23;40.47;101191.38;6265020;23;20110;-81
2022/05/16 09:54:23;;;;;;;6.53;2.80;;;;;;;28.25;38.09;101194.13;6253825;23;20027;-81
2022/05/16 09:57:03;;;;;;;7.05;2.65;;;;;;;28.56;37.45;101203.22;6258863;23;20011;-80
2022/05/16 09:59:40;;;;;;;6.95;3.25;;;;;;;28.43;36.37;101223.09;6260151;23;20016;-80
2022/05/16 10:02:13;;;;;;;13.38;4.50;;;;;;;27.93;38.39;101223.50;6269355;23;20345;-82
2022/05/16 10:04:47;;;;;;;7.05;3.47;;;;;;;27.40;39.13;101237.44;6416025;23;20072;-80
2022/05/16 10:07:26;;;;;;;10.05;3.92;;;;;;;27.43;39.33;101234.53;6416340;23;20010;-78
2022/05/16 10:09:59;;;;;;;11.63;3.80;;;;;;;26.94;40.02;101225.72;6413804;23;20016;-79
2022/05/16 10:12:32;;;;;;;14.45;3.83;;;;;;;27.40;40.52;101234.75;6411122;23;20037;-80
2022/05/16 10:15:04;;;;;;;10.80;3.88;;;;;;;27.47;40.20;101236.00;6403574;23;20447;-81
2022/05/16 10:17:37;;;;;;;;;;;;;;;27.43;39.76;101242.56;6404091;23;20339;-81
2022/05/16 10:20:21;;;;;;;13.20;4.43;;;;;;;26.18;42.96;101244.56;6404482;23;20250;-81
2022/05/16 10:22:58;;;;;;;14.13;3.92;;;;;;;25.46;44.87;101258.41;6404465;23;20257;-81
2022/05/16 10:25:36;;;;;;;10.13;3.92;;;;;;;24.89;47.35;101262.19;6402832;23;20092;-82
2022/05/16 10:28:12;;;;;;;13.57;3.67;;;;;;;24.01;52.76;101291.69;6409432;23;20328;-80
2022/05/16 10:33:40;;;;;;;9.73;4.70;;;;;;;21.57;71.42;101306.13;6405526;23;20013;-80
2022/05/16 10:36:23;;;;;;;15.27;4.75;;;;;;;20.65;74.84;101303.50;6380011;23;19994;-83
2022/05/16 10:39:07;;;;;;;12.25;4.97;;;;;;;20.41;83.08;101308.94;6405717;23;20001;-78
2022/05/16 10:41:53;;;;;;;14.43;5.32;;;;;;;20.30;79.18;101309.47;6406955;23;20017;-84
2022/05/16 10:44:46;;;;;;;11.50;5.20;;;;;;;20.49;77.64;101308.59;6404825;23;20090;-82
2022/05/16 10:47:28;;;;;;;13.55;4.50;;;;;;;21.90;73.05;101321.28;6406109;23;20005;-79
2022/05/16 10:50:14;;;;;;;15.25;4.75;;;;;;;23.12;68.37;101323.56;6405494;23;20080;-83
2022/05/16 10:53:10;;;;;;;14.95;4.78;;;;;;;24.79;65.90;101313.56;6406499;23;20080;-83
2022/05/16 10:56:05;;;;;;;11.05;4.30;;;;;;;25.59;59.32;101316.31;6407205;23;20006;-83
2022/05/16 10:59:10;;;;;;;10.88;4.40;;;;;;;24.60;59.46;101317.41;6405829;23;20009;-83
2022/05/16 11:01:58;;;;;;;9.85;4.50;;;;;;;24.32;57.96;101327.09;6406043;23;20036;-81
2022/05/16 11:05:00;;;;;;;11.23;4.15;;;;;;;24.26;57.20;101330.13;6404732;23;20009;-82
2022/05/16 11:07:52;;;;;;;8.32;4.22;;;;;;;24.25;56.26;101330.22;6405743;23;20013;-82
2022/05/16 11:10:38;;;;;;;12.60;4.57;;;;;;;23.79;56.18;101326.72;6404766;23;20347;-78
2022/05/16 11:13:25;;;;;;;9.35;4.38;;;;;;;23.67;57.08;101330.13;6404812;23;20014;-80
2022/05/16 11:16:18;;;;;;;8.32;4.57;;;;;;;23.72;56.20;101336.03;6406247;23;20013;-82
2022/05/16 11:19:12;;;;;;;15.73;4.95;;;;;;;23.45;55.88;101325.22;6405576;23;20016;-82
2022/05/16 11:21:54;;;;;;;11.25;4.40;;;;;;;23.79;57.91;101333.84;6406029;23;20009;-80
2022/05/16 11:24:49;;;;;;;12.77;4.77;;;;;;;23.68;55.56;101331.81;6405673;23;20013;-83
2022/05/16 11:27:27;;;;;;;12.48;5.53;;;;;;;23.28;56.92;101334.16;6406267;23;20040;-83
2022/05/16 11:30:31;;;;;;;16.65;5.40;;;;;;;22.85;58.94;101345.41;6406182;23;20009;-82
2022/05/16 11:33:05;;;;;;;13.90;6.88;;;;;;;22.37;62.43;101347.97;6409297;23;20360;-83
2022/05/16 11:35:43;;;;;;;13.02;6.55;;;;;;;21.79;67.00;101338.59;6408617;23;20057;-84
2022/05/16 11:38:14;;;;;;;19.30;6.82;;;;;;;21.59;69.07;101334.31;6407511;23;20375;-85
2022/05/16 11:41:25;;;;;;;14.67;6.53;;;;;;;21.62;68.10;101355.38;6411639;23;20098;-80
2022/05/16 11:44:28;;;;;;;11.35;6.38;;;;;;;21.87;70.20;101354.13;6314766;23;20011;-82
2022/05/16 11:47:05;;;;;;;;;;;;;;;22.08;65.42;101353.97;6313642;23;20078;-84
2022/05/16 11:50:04;;;;;;;14.32;6.15;;;;;;;22.11;66.79;101359.13;6311067;23;20213;-83
2022/05/16 11:53:01;;;;;;;12.88;6.22;;;;;;;22.03;63.18;101359.50;6311619;23;20014;-84
2022/05/16 12:01:33;;;;;;;10.45;6.47;;;;;;;22.09;63.09;101367.16;6311862;23;20019;-84
2022/05/16 12:04:23;;;;;;;9.20;6.10;;;;;;;22.18;62.92;101374.63;6310655;23;20018;-84
2022/05/16 12:07:04;;;;;;;15.65;7.38;;;;;;;22.00;64.41;101376.44;6313141;23;20011;-84
2022/05/16 12:09:51;;;;;;;13.38;8.43;;;;;;;22.00;65.64;101383.56;6313263;23;20038;-83
2022/05/16 12:12:38;;;;;;;18.75;9.60;;;;;;;22.01;66.44;101382.63;6312943;23;20242;-82
2022/05/16 12:15:24;;;;;;;16.77;10.23;;;;;;;21.83;66.30;101390.59;6312658;23;20399;-84
2022/05/16 12:18:08;;;;;;;20.02;11.13;;;;;;;21.98;66.06;101391.59;6312508;23;20111;-82
2022/05/16 12:20:42;;;;;;;17.58;9.68;;;;;;;21.98;67.30;101404.00;6344436;23;20048;-81
2022/05/16 12:23:49;;;;;;;15.20;10.07;;;;;;;21.67;68.42;101411.72;6405963;23;20076;-77
2022/05/16 12:26:26;;;;;;;15.45;10.50;;;;;;;21.37;69.88;101415.84;6406418;23;20025;-84
2022/05/16 12:29:10;;;;;;;15.52;10.35;;;;;;;21.60;69.38;101418.25;6406610;23;20068;-81
2022/05/16 12:31:44;;;;;;;14.93;10.85;;;;;;;21.54;68.85;101421.22;6406514;23;20370;-80
2022/05/16 12:34:33;;;;;;;13.48;11.98;;;;;;;21.26;69.42;101429.59;6407554;23;20088;-79